sensor_id;sensor_type;location;lat;lon;timestamp;P1;durP1;ratioP1;P2;durP2;ratioP2
80653;SDS011;70020;45.524;10.240;2023-08-01T00:01:37;6.85;;;3.97;;
80653;SDS011;70020;45.524;10.240;2023-08-01T00:04:03;2.50;;;1.85;;
80653;SDS011;70020;45.524;10.240;2023-08-01T00:06:30;4.80;;;2.13;;
80653;SDS011;70020;45.524;10.240;2023-08-01T00:08:56;3.63;;;2.55;;
80653;SDS011;70020;45.524;10.240;2023-08-01T00:11:21;6.28;;;2.97;;
80653;SDS011;70020;45.524;10.240;2023-08-01T00:13:47;5.45;;;3.35;;
80653;SDS011;70020;45.524;10.240;2023-08-01T00:16:14;4.05;;;2.72;;
80653;SDS011;70020;45.524;10.240;2023-08-01T00:18:40;4.43;;;3.40;;
80653;SDS011;70020;45.524;10.240;2023-08-01T00:21:06;6.35;;;4.80;;
80653;SDS011;70020;45.524;10.240;2023-08-01T00:23:35;5.45;;;3.83;;
80653;SDS011;70020;45.524;10.240;2023-08-01T00:26:03;6.78;;;4.85;;
80653;SDS011;70020;45.524;10.240;2023-08-01T00:28:29;4.38;;;2.25;;
80653;SDS011;70020;45.524;10.240;2023-08-01T00:31:05;7.32;;;4.65;;
80653;SDS011;70020;45.524;10.240;2023-08-01T00:33:33;5.70;;;4.00;;
80653;SDS011;70020;45.524;10.240;2023-08-01T00:35:59;5.70;;;4.55;;
80653;SDS011;70020;45.524;10.240;2023-08-01T00:38:25;5.03;;;4.03;;
80653;SDS011;70020;45.524;10.240;2023-08-01T00:40:50;3.75;;;2.00;;
80653;SDS011;70020;45.524;10.240;2023-08-01T00:43:17;3.40;;;2.70;;
80653;SDS011;70020;45.524;10.240;2023-08-01T00:45:42;5.60;;;2.30;;
80653;SDS011;70020;45.524;10.240;2023-08-01T00:48:08;7.10;;;4.25;;
80653;SDS011;70020;45.524;10.240;2023-08-01T00:50:34;6.43;;;4.68;;
80653;SDS011;70020;45.524;10.240;2023-08-01T00:53:00;3.00;;;2.25;;
80653;SDS011;70020;45.524;10.240;2023-08-01T00:55:27;2.30;;;1.67;;
80653;SDS011;70020;45.524;10.240;2023-08-01T00:57:55;2.33;;;1.90;;
80653;SDS011;70020;45.524;10.240;2023-08-01T01:00:20;4.50;;;1.65;;
80653;SDS011;70020;45.524;10.240;2023-08-01T01:02:46;4.40;;;3.30;;
80653;SDS011;70020;45.524;10.240;2023-08-01T01:05:12;5.43;;;2.83;;
80653;SDS011;70020;45.524;10.240;2023-08-01T01:07:39;3.95;;;2.45;;
80653;SDS011;70020;45.524;10.240;2023-08-01T01:10:05;4.75;;;3.90;;
80653;SDS011;70020;45.524;10.240;2023-08-01T01:12:32;3.28;;;1.80;;
80653;SDS011;70020;45.524;10.240;2023-08-01T01:14:58;7.32;;;4.18;;
80653;SDS011;70020;45.524;10.240;2023-08-01T01:17:23;5.18;;;4.18;;
80653;SDS011;70020;45.524;10.240;2023-08-01T01:19:50;3.20;;;2.15;;
80653;SDS011;70020;45.524;10.240;2023-08-01T01:22:16;4.47;;;3.22;;
80653;SDS011;70020;45.524;10.240;2023-08-01T01:24:42;4.45;;;3.20;;
80653;SDS011;70020;45.524;10.240;2023-08-01T01:27:08;4.82;;;3.85;;
80653;SDS011;70020;45.524;10.240;2023-08-01T01:29:35;4.75;;;2.42;;
80653;SDS011;70020;45.524;10.240;2023-08-01T01:32:02;6.32;;;3.17;;
80653;SDS011;70020;45.524;10.240;2023-08-01T01:34:30;4.28;;;2.20;;
80653;SDS011;70020;45.524;10.240;2023-08-01T01:36:56;3.85;;;3.00;;
80653;SDS011;70020;45.524;10.240;2023-08-01T01:39:22;5.18;;;2.95;;
80653;SDS011;70020;45.524;10.240;2023-08-01T01:41:48;3.45;;;2.60;;
80653;SDS011;70020;45.524;10.240;2023-08-01T01:44:13;3.60;;;1.75;;
80653;SDS011;70020;45.524;10.240;2023-08-01T01:46:39;2.75;;;1.90;;
80653;SDS011;70020;45.524;10.240;2023-08-01T01:49:05;6.00;;;2.47;;
80653;SDS011;70020;45.524;10.240;2023-08-01T01:51:31;2.33;;;1.98;;
80653;SDS011;70020;45.524;10.240;2023-08-01T01:53:57;4.15;;;2.10;;
80653;SDS011;70020;45.524;10.240;2023-08-01T01:56:22;3.45;;;1.92;;
80653;SDS011;70020;45.524;10.240;2023-08-01T01:58:48;3.30;;;1.92;;
80653;SDS011;70020;45.524;10.240;2023-08-01T02:01:14;4.18;;;2.45;;
80653;SDS011;70020;45.524;10.240;2023-08-01T02:03:40;2.53;;;2.10;;
80653;SDS011;70020;45.524;10.240;2023-08-01T02:06:06;2.72;;;1.67;;
80653;SDS011;70020;45.524;10.240;2023-08-01T02:08:32;3.70;;;1.88;;
80653;SDS011;70020;45.524;10.240;2023-08-01T02:10:58;1.85;;;1.75;;
80653;SDS011;70020;45.524;10.240;2023-08-01T02:13:24;2.10;;;1.80;;
80653;SDS011;70020;45.524;10.240;2023-08-01T02:15:51;3.35;;;2.00;;
80653;SDS011;70020;45.524;10.240;2023-08-01T02:18:17;1.92;;;1.67;;
80653;SDS011;70020;45.524;10.240;2023-08-01T02:20:43;2.25;;;1.60;;
80653;SDS011;70020;45.524;10.240;2023-08-01T02:23:08;4.63;;;2.10;;
80653;SDS011;70020;45.524;10.240;2023-08-01T02:25:40;4.78;;;2.25;;
80653;SDS011;70020;45.524;10.240;2023-08-01T02:28:06;3.30;;;1.85;;
80653;SDS011;70020;45.524;10.240;2023-08-01T02:30:33;5.28;;;2.20;;
80653;SDS011;70020;45.524;10.240;2023-08-01T02:32:59;4.78;;;1.98;;
80653;SDS011;70020;45.524;10.240;2023-08-01T02:35:25;2.42;;;1.80;;
80653;SDS011;70020;45.524;10.240;2023-08-01T02:37:53;4.88;;;1.80;;
80653;SDS011;70020;45.524;10.240;2023-08-01T02:40:20;3.83;;;1.98;;
80653;SDS011;70020;45.524;10.240;2023-08-01T02:42:46;2.92;;;1.88;;
80653;SDS011;70020;45.524;10.240;2023-08-01T02:45:12;2.95;;;1.98;;
80653;SDS011;70020;45.524;10.240;2023-08-01T02:47:37;2.95;;;1.80;;
80653;SDS011;70020;45.524;10.240;2023-08-01T02:50:04;4.93;;;1.80;;
80653;SDS011;70020;45.524;10.240;2023-08-01T02:52:31;2.92;;;1.77;;
80653;SDS011;70020;45.524;10.240;2023-08-01T02:54:56;3.05;;;1.65;;
80653;SDS011;70020;45.524;10.240;2023-08-01T02:57:23;2.80;;;2.00;;
80653;SDS011;70020;45.524;10.240;2023-08-01T02:59:49;1.98;;;1.73;;
80653;SDS011;70020;45.524;10.240;2023-08-01T03:02:15;2.35;;;1.80;;
80653;SDS011;70020;45.524;10.240;2023-08-01T03:04:40;4.85;;;2.00;;
80653;SDS011;70020;45.524;10.240;2023-08-01T03:07:06;3.40;;;2.22;;
80653;SDS011;70020;45.524;10.240;2023-08-01T03:09:32;2.42;;;1.75;;
80653;SDS011;70020;45.524;10.240;2023-08-01T03:11:58;2.88;;;1.92;;
80653;SDS011;70020;45.524;10.240;2023-08-01T03:14:24;5.55;;;2.30;;
80653;SDS011;70020;45.524;10.240;2023-08-01T03:16:50;3.20;;;2.10;;
80653;SDS011;70020;45.524;10.240;2023-08-01T03:19:16;3.63;;;2.65;;
80653;SDS011;70020;45.524;10.240;2023-08-01T03:21:42;4.25;;;2.45;;
80653;SDS011;70020;45.524;10.240;2023-08-01T03:24:11;19.17;;;3.35;;
80653;SDS011;70020;45.524;10.240;2023-08-01T03:26:36;7.43;;;3.28;;
80653;SDS011;70020;45.524;10.240;2023-08-01T03:29:03;6.72;;;3.00;;
80653;SDS011;70020;45.524;10.240;2023-08-01T03:31:30;4.28;;;2.90;;
80653;SDS011;70020;45.524;10.240;2023-08-01T03:33:56;5.97;;;3.10;;
80653;SDS011;70020;45.524;10.240;2023-08-01T03:36:24;6.85;;;3.40;;
80653;SDS011;70020;45.524;10.240;2023-08-01T03:38:50;5.15;;;3.40;;
80653;SDS011;70020;45.524;10.240;2023-08-01T03:41:16;6.35;;;3.70;;
80653;SDS011;70020;45.524;10.240;2023-08-01T03:43:41;5.78;;;3.65;;
80653;SDS011;70020;45.524;10.240;2023-08-01T03:46:08;4.00;;;2.92;;
80653;SDS011;70020;45.524;10.240;2023-08-01T03:48:34;6.15;;;3.50;;
80653;SDS011;70020;45.524;10.240;2023-08-01T03:51:00;3.80;;;2.75;;
80653;SDS011;70020;45.524;10.240;2023-08-01T03:53:28;7.30;;;3.90;;
80653;SDS011;70020;45.524;10.240;2023-08-01T03:55:54;4.30;;;3.58;;
80653;SDS011;70020;45.524;10.240;2023-08-01T03:58:20;5.70;;;2.97;;
80653;SDS011;70020;45.524;10.240;2023-08-01T04:00:46;4.88;;;2.35;;
80653;SDS011;70020;45.524;10.240;2023-08-01T04:03:12;7.22;;;2.92;;
80653;SDS011;70020;45.524;10.240;2023-08-01T04:05:38;5.68;;;2.80;;
80653;SDS011;70020;45.524;10.240;2023-08-01T04:08:03;8.25;;;3.80;;
80653;SDS011;70020;45.524;10.240;2023-08-01T04:10:29;6.10;;;3.92;;
80653;SDS011;70020;45.524;10.240;2023-08-01T04:12:55;5.63;;;3.92;;
80653;SDS011;70020;45.524;10.240;2023-08-01T04:15:21;4.35;;;2.45;;
80653;SDS011;70020;45.524;10.240;2023-08-01T04:17:47;3.38;;;2.78;;
80653;SDS011;70020;45.524;10.240;2023-08-01T04:20:12;5.40;;;2.88;;
80653;SDS011;70020;45.524;10.240;2023-08-01T04:22:38;5.88;;;3.15;;
80653;SDS011;70020;45.524;10.240;2023-08-01T04:25:07;5.70;;;3.05;;
80653;SDS011;70020;45.524;10.240;2023-08-01T04:27:33;4.93;;;3.10;;
80653;SDS011;70020;45.524;10.240;2023-08-01T04:29:59;3.67;;;2.60;;
80653;SDS011;70020;45.524;10.240;2023-08-01T04:32:25;4.20;;;2.33;;
80653;SDS011;70020;45.524;10.240;2023-08-01T04:34:51;3.40;;;2.40;;
80653;SDS011;70020;45.524;10.240;2023-08-01T04:37:17;6.10;;;2.45;;
80653;SDS011;70020;45.524;10.240;2023-08-01T04:39:45;3.60;;;2.53;;
80653;SDS011;70020;45.524;10.240;2023-08-01T04:42:11;7.30;;;2.88;;
80653;SDS011;70020;45.524;10.240;2023-08-01T04:44:37;4.43;;;2.45;;
80653;SDS011;70020;45.524;10.240;2023-08-01T04:47:03;3.75;;;2.35;;
80653;SDS011;70020;45.524;10.240;2023-08-01T04:49:30;4.45;;;2.67;;
80653;SDS011;70020;45.524;10.240;2023-08-01T04:51:55;3.65;;;2.35;;
80653;SDS011;70020;45.524;10.240;2023-08-01T04:54:21;2.78;;;2.03;;
80653;SDS011;70020;45.524;10.240;2023-08-01T04:56:47;2.80;;;2.30;;
80653;SDS011;70020;45.524;10.240;2023-08-01T04:59:13;2.78;;;2.45;;
80653;SDS011;70020;45.524;10.240;2023-08-01T05:01:39;4.70;;;2.65;;
80653;SDS011;70020;45.524;10.240;2023-08-01T05:04:05;5.50;;;2.65;;
80653;SDS011;70020;45.524;10.240;2023-08-01T05:06:31;4.95;;;2.70;;
80653;SDS011;70020;45.524;10.240;2023-08-01T05:08:57;3.47;;;2.58;;
80653;SDS011;70020;45.524;10.240;2023-08-01T05:11:23;4.75;;;2.78;;
80653;SDS011;70020;45.524;10.240;2023-08-01T05:13:49;6.32;;;2.55;;
80653;SDS011;70020;45.524;10.240;2023-08-01T05:16:15;10.05;;;3.30;;
80653;SDS011;70020;45.524;10.240;2023-08-01T05:18:42;3.75;;;2.25;;
80653;SDS011;70020;45.524;10.240;2023-08-01T05:21:07;4.65;;;2.45;;
80653;SDS011;70020;45.524;10.240;2023-08-01T05:23:34;2.72;;;2.40;;
80653;SDS011;70020;45.524;10.240;2023-08-01T05:25:59;4.68;;;2.85;;
80653;SDS011;70020;45.524;10.240;2023-08-01T05:28:26;4.38;;;2.47;;
80653;SDS011;70020;45.524;10.240;2023-08-01T05:30:52;5.72;;;2.42;;
80653;SDS011;70020;45.524;10.240;2023-08-01T05:33:17;4.40;;;2.58;;
80653;SDS011;70020;45.524;10.240;2023-08-01T05:35:43;2.75;;;2.45;;
80653;SDS011;70020;45.524;10.240;2023-08-01T05:38:10;4.60;;;2.50;;
80653;SDS011;70020;45.524;10.240;2023-08-01T05:40:36;3.28;;;2.42;;
80653;SDS011;70020;45.524;10.240;2023-08-01T05:43:01;2.72;;;2.22;;
80653;SDS011;70020;45.524;10.240;2023-08-01T05:45:29;3.13;;;2.30;;
80653;SDS011;70020;45.524;10.240;2023-08-01T05:47:54;4.97;;;2.80;;
80653;SDS011;70020;45.524;10.240;2023-08-01T05:50:21;5.00;;;2.35;;
80653;SDS011;70020;45.524;10.240;2023-08-01T05:52:47;4.63;;;2.33;;
80653;SDS011;70020;45.524;10.240;2023-08-01T05:55:13;3.67;;;2.50;;
80653;SDS011;70020;45.524;10.240;2023-08-01T05:57:39;6.60;;;2.90;;
80653;SDS011;70020;45.524;10.240;2023-08-01T06:00:05;3.10;;;2.35;;
80653;SDS011;70020;45.524;10.240;2023-08-01T06:02:33;6.63;;;2.60;;
80653;SDS011;70020;45.524;10.240;2023-08-01T06:05:00;7.43;;;3.03;;
80653;SDS011;70020;45.524;10.240;2023-08-01T06:07:25;9.13;;;3.63;;
80653;SDS011;70020;45.524;10.240;2023-08-01T06:09:51;6.45;;;2.97;;
80653;SDS011;70020;45.524;10.240;2023-08-01T06:12:17;4.80;;;2.80;;
80653;SDS011;70020;45.524;10.240;2023-08-01T06:14:43;3.40;;;2.40;;
80653;SDS011;70020;45.524;10.240;2023-08-01T06:17:09;4.20;;;2.10;;
80653;SDS011;70020;45.524;10.240;2023-08-01T06:19:35;5.53;;;2.60;;
80653;SDS011;70020;45.524;10.240;2023-08-01T06:22:00;4.97;;;2.30;;
80653;SDS011;70020;45.524;10.240;2023-08-01T06:24:26;3.60;;;2.38;;
80653;SDS011;70020;45.524;10.240;2023-08-01T06:26:52;3.63;;;2.50;;
80653;SDS011;70020;45.524;10.240;2023-08-01T06:29:18;3.05;;;2.40;;
80653;SDS011;70020;45.524;10.240;2023-08-01T06:31:44;4.47;;;2.70;;
80653;SDS011;70020;45.524;10.240;2023-08-01T06:34:09;5.82;;;3.05;;
80653;SDS011;70020;45.524;10.240;2023-08-01T06:36:35;5.13;;;2.60;;
80653;SDS011;70020;45.524;10.240;2023-08-01T06:39:01;5.72;;;2.60;;
80653;SDS011;70020;45.524;10.240;2023-08-01T06:41:26;5.85;;;2.55;;
80653;SDS011;70020;45.524;10.240;2023-08-01T06:43:53;4.38;;;2.90;;
80653;SDS011;70020;45.524;10.240;2023-08-01T06:46:19;5.28;;;2.50;;
80653;SDS011;70020;45.524;10.240;2023-08-01T06:48:44;5.18;;;2.53;;
80653;SDS011;70020;45.524;10.240;2023-08-01T06:51:10;9.15;;;2.70;;
80653;SDS011;70020;45.524;10.240;2023-08-01T06:53:36;6.85;;;2.50;;
80653;SDS011;70020;45.524;10.240;2023-08-01T06:56:02;5.03;;;2.22;;
80653;SDS011;70020;45.524;10.240;2023-08-01T06:58:28;5.10;;;2.60;;
80653;SDS011;70020;45.524;10.240;2023-08-01T07:00:54;3.55;;;2.00;;
80653;SDS011;70020;45.524;10.240;2023-08-01T07:03:20;5.20;;;2.38;;
80653;SDS011;70020;45.524;10.240;2023-08-01T07:05:45;10.90;;;2.83;;
80653;SDS011;70020;45.524;10.240;2023-08-01T07:08:11;4.93;;;2.50;;
80653;SDS011;70020;45.524;10.240;2023-08-01T07:10:37;3.92;;;2.20;;
80653;SDS011;70020;45.524;10.240;2023-08-01T07:13:03;5.20;;;2.20;;
80653;SDS011;70020;45.524;10.240;2023-08-01T07:15:32;5.45;;;2.30;;
80653;SDS011;70020;45.524;10.240;2023-08-01T07:17:58;6.55;;;2.40;;
80653;SDS011;70020;45.524;10.240;2023-08-01T07:20:24;4.75;;;2.40;;
80653;SDS011;70020;45.524;10.240;2023-08-01T07:22:50;5.78;;;2.38;;
80653;SDS011;70020;45.524;10.240;2023-08-01T07:25:16;4.10;;;2.20;;
80653;SDS011;70020;45.524;10.240;2023-08-01T07:27:42;6.80;;;2.30;;
80653;SDS011;70020;45.524;10.240;2023-08-01T07:30:09;4.72;;;2.15;;
80653;SDS011;70020;45.524;10.240;2023-08-01T07:32:36;6.70;;;2.05;;
80653;SDS011;70020;45.524;10.240;2023-08-01T07:35:05;6.18;;;2.13;;
80653;SDS011;70020;45.524;10.240;2023-08-01T07:37:32;4.45;;;2.00;;
80653;SDS011;70020;45.524;10.240;2023-08-01T07:39:58;8.98;;;2.20;;
80653;SDS011;70020;45.524;10.240;2023-08-01T07:42:24;4.28;;;2.30;;
80653;SDS011;70020;45.524;10.240;2023-08-01T07:44:50;5.68;;;2.20;;
80653;SDS011;70020;45.524;10.240;2023-08-01T07:47:15;8.20;;;2.28;;
80653;SDS011;70020;45.524;10.240;2023-08-01T07:49:44;5.20;;;2.10;;
80653;SDS011;70020;45.524;10.240;2023-08-01T07:52:10;3.92;;;1.98;;
80653;SDS011;70020;45.524;10.240;2023-08-01T07:54:36;5.05;;;2.45;;
80653;SDS011;70020;45.524;10.240;2023-08-01T07:57:02;6.00;;;1.95;;
80653;SDS011;70020;45.524;10.240;2023-08-01T07:59:28;4.63;;;2.15;;
80653;SDS011;70020;45.524;10.240;2023-08-01T08:01:54;6.20;;;2.20;;
80653;SDS011;70020;45.524;10.240;2023-08-01T08:04:21;5.05;;;2.05;;
80653;SDS011;70020;45.524;10.240;2023-08-01T08:06:47;4.85;;;2.25;;
80653;SDS011;70020;45.524;10.240;2023-08-01T08:09:13;6.53;;;2.70;;
80653;SDS011;70020;45.524;10.240;2023-08-01T08:11:39;3.47;;;1.98;;
80653;SDS011;70020;45.524;10.240;2023-08-01T08:14:06;5.88;;;2.20;;
80653;SDS011;70020;45.524;10.240;2023-08-01T08:16:32;4.05;;;2.28;;
80653;SDS011;70020;45.524;10.240;2023-08-01T08:18:59;6.60;;;2.80;;
80653;SDS011;70020;45.524;10.240;2023-08-01T08:21:25;3.40;;;1.92;;
80653;SDS011;70020;45.524;10.240;2023-08-01T08:23:51;3.67;;;2.33;;
80653;SDS011;70020;45.524;10.240;2023-08-01T08:26:17;3.58;;;2.20;;
80653;SDS011;70020;45.524;10.240;2023-08-01T08:28:43;4.32;;;2.17;;
80653;SDS011;70020;45.524;10.240;2023-08-01T08:31:08;4.38;;;2.30;;
80653;SDS011;70020;45.524;10.240;2023-08-01T08:33:35;3.75;;;2.25;;
80653;SDS011;70020;45.524;10.240;2023-08-01T08:36:00;5.55;;;2.30;;
80653;SDS011;70020;45.524;10.240;2023-08-01T08:38:26;3.65;;;2.30;;
80653;SDS011;70020;45.524;10.240;2023-08-01T08:43:44;3.70;;;2.17;;
80653;SDS011;70020;45.524;10.240;2023-08-01T08:46:17;3.63;;;2.22;;
80653;SDS011;70020;45.524;10.240;2023-08-01T08:48:47;3.45;;;2.00;;
80653;SDS011;70020;45.524;10.240;2023-08-01T08:51:12;5.10;;;2.50;;
80653;SDS011;70020;45.524;10.240;2023-08-01T08:53:41;6.47;;;2.83;;
80653;SDS011;70020;45.524;10.240;2023-08-01T08:56:09;3.78;;;2.47;;
80653;SDS011;70020;45.524;10.240;2023-08-01T08:58:36;5.38;;;2.50;;
80653;SDS011;70020;45.524;10.240;2023-08-01T09:01:05;5.45;;;2.67;;
80653;SDS011;70020;45.524;10.240;2023-08-01T09:03:33;4.43;;;2.78;;
80653;SDS011;70020;45.524;10.240;2023-08-01T09:06:00;3.05;;;2.35;;
80653;SDS011;70020;45.524;10.240;2023-08-01T09:08:32;4.05;;;2.60;;
80653;SDS011;70020;45.524;10.240;2023-08-01T09:11:05;3.60;;;2.50;;
80653;SDS011;70020;45.524;10.240;2023-08-01T09:13:31;4.80;;;2.38;;
80653;SDS011;70020;45.524;10.240;2023-08-01T09:15:57;5.20;;;2.50;;
80653;SDS011;70020;45.524;10.240;2023-08-01T09:18:22;4.05;;;2.40;;
80653;SDS011;70020;45.524;10.240;2023-08-01T09:20:48;5.47;;;2.70;;
80653;SDS011;70020;45.524;10.240;2023-08-01T09:23:15;5.30;;;2.40;;
80653;SDS011;70020;45.524;10.240;2023-08-01T09:25:42;5.88;;;2.70;;
80653;SDS011;70020;45.524;10.240;2023-08-01T09:28:18;4.70;;;3.03;;
80653;SDS011;70020;45.524;10.240;2023-08-01T09:30:54;3.83;;;2.40;;
80653;SDS011;70020;45.524;10.240;2023-08-01T09:33:21;4.13;;;2.55;;
80653;SDS011;70020;45.524;10.240;2023-08-01T09:35:50;6.35;;;2.80;;
80653;SDS011;70020;45.524;10.240;2023-08-01T09:38:16;6.63;;;2.70;;
80653;SDS011;70020;45.524;10.240;2023-08-01T09:40:43;6.00;;;2.67;;
80653;SDS011;70020;45.524;10.240;2023-08-01T09:43:10;4.10;;;2.70;;
80653;SDS011;70020;45.524;10.240;2023-08-01T09:45:36;4.78;;;2.75;;
80653;SDS011;70020;45.524;10.240;2023-08-01T09:48:02;12.07;;;3.22;;
80653;SDS011;70020;45.524;10.240;2023-08-01T09:50:28;6.82;;;3.03;;
80653;SDS011;70020;45.524;10.240;2023-08-01T09:52:54;6.20;;;3.15;;
80653;SDS011;70020;45.524;10.240;2023-08-01T09:55:32;3.80;;;2.75;;
80653;SDS011;70020;45.524;10.240;2023-08-01T09:57:58;5.78;;;3.00;;
80653;SDS011;70020;45.524;10.240;2023-08-01T10:00:25;5.75;;;3.00;;
80653;SDS011;70020;45.524;10.240;2023-08-01T10:02:52;5.90;;;2.70;;
80653;SDS011;70020;45.524;10.240;2023-08-01T10:05:18;7.75;;;3.10;;
80653;SDS011;70020;45.524;10.240;2023-08-01T10:07:45;6.97;;;3.40;;
80653;SDS011;70020;45.524;10.240;2023-08-01T10:10:12;5.47;;;3.00;;
80653;SDS011;70020;45.524;10.240;2023-08-01T10:12:39;6.78;;;3.15;;
80653;SDS011;70020;45.524;10.240;2023-08-01T10:15:10;7.20;;;3.25;;
80653;SDS011;70020;45.524;10.240;2023-08-01T10:17:36;5.72;;;3.22;;
80653;SDS011;70020;45.524;10.240;2023-08-01T10:20:03;6.95;;;2.78;;
80653;SDS011;70020;45.524;10.240;2023-08-01T10:22:29;6.30;;;3.10;;
80653;SDS011;70020;45.524;10.240;2023-08-01T10:24:57;5.38;;;3.08;;
80653;SDS011;70020;45.524;10.240;2023-08-01T10:27:23;6.93;;;3.58;;
80653;SDS011;70020;45.524;10.240;2023-08-01T10:30:00;6.43;;;3.47;;
80653;SDS011;70020;45.524;10.240;2023-08-01T10:32:33;12.25;;;4.00;;
80653;SDS011;70020;45.524;10.240;2023-08-01T10:35:04;10.63;;;4.13;;
80653;SDS011;70020;45.524;10.240;2023-08-01T10:37:45;5.32;;;3.55;;
80653;SDS011;70020;45.524;10.240;2023-08-01T10:40:13;8.45;;;3.92;;
80653;SDS011;70020;45.524;10.240;2023-08-01T10:42:43;5.45;;;3.20;;
80653;SDS011;70020;45.524;10.240;2023-08-01T10:45:20;8.45;;;3.58;;
80653;SDS011;70020;45.524;10.240;2023-08-01T10:47:48;9.38;;;4.32;;
80653;SDS011;70020;45.524;10.240;2023-08-01T10:50:15;4.90;;;3.38;;
80653;SDS011;70020;45.524;10.240;2023-08-01T10:52:42;5.70;;;3.30;;
80653;SDS011;70020;45.524;10.240;2023-08-01T10:55:09;6.28;;;3.80;;
80653;SDS011;70020;45.524;10.240;2023-08-01T10:57:36;7.00;;;3.58;;
80653;SDS011;70020;45.524;10.240;2023-08-01T11:00:17;6.18;;;3.22;;
80653;SDS011;70020;45.524;10.240;2023-08-01T11:02:48;9.23;;;4.97;;
80653;SDS011;70020;45.524;10.240;2023-08-01T11:05:15;6.90;;;4.30;;
80653;SDS011;70020;45.524;10.240;2023-08-01T11:07:42;10.52;;;4.30;;
80653;SDS011;70020;45.524;10.240;2023-08-01T11:10:18;6.68;;;3.53;;
80653;SDS011;70020;45.524;10.240;2023-08-01T11:12:44;6.25;;;3.33;;
80653;SDS011;70020;45.524;10.240;2023-08-01T11:15:10;8.65;;;4.50;;
80653;SDS011;70020;45.524;10.240;2023-08-01T11:17:38;7.90;;;3.72;;
80653;SDS011;70020;45.524;10.240;2023-08-01T11:20:10;5.63;;;3.53;;
80653;SDS011;70020;45.524;10.240;2023-08-01T11:22:36;8.52;;;3.42;;
80653;SDS011;70020;45.524;10.240;2023-08-01T11:25:04;7.40;;;3.63;;
80653;SDS011;70020;45.524;10.240;2023-08-01T11:27:30;3.90;;;3.22;;
80653;SDS011;70020;45.524;10.240;2023-08-01T11:29:56;4.53;;;3.15;;
80653;SDS011;70020;45.524;10.240;2023-08-01T11:32:32;6.18;;;3.70;;
80653;SDS011;70020;45.524;10.240;2023-08-01T11:34:59;6.53;;;3.22;;
80653;SDS011;70020;45.524;10.240;2023-08-01T11:37:25;7.90;;;3.40;;
80653;SDS011;70020;45.524;10.240;2023-08-01T11:39:51;6.40;;;3.15;;
80653;SDS011;70020;45.524;10.240;2023-08-01T11:42:17;5.72;;;3.28;;
80653;SDS011;70020;45.524;10.240;2023-08-01T11:44:44;9.45;;;3.88;;
80653;SDS011;70020;45.524;10.240;2023-08-01T11:47:11;5.13;;;3.40;;
80653;SDS011;70020;45.524;10.240;2023-08-01T11:49:47;6.15;;;3.20;;
80653;SDS011;70020;45.524;10.240;2023-08-01T11:52:35;5.43;;;3.28;;
80653;SDS011;70020;45.524;10.240;2023-08-01T11:55:00;7.90;;;3.30;;
80653;SDS011;70020;45.524;10.240;2023-08-01T11:57:27;5.63;;;3.13;;
80653;SDS011;70020;45.524;10.240;2023-08-01T11:59:53;7.28;;;3.83;;
80653;SDS011;70020;45.524;10.240;2023-08-01T12:02:24;5.60;;;3.15;;
80653;SDS011;70020;45.524;10.240;2023-08-01T12:04:50;6.68;;;4.05;;
80653;SDS011;70020;45.524;10.240;2023-08-01T12:07:17;7.57;;;3.90;;
80653;SDS011;70020;45.524;10.240;2023-08-01T12:09:43;6.97;;;3.60;;
80653;SDS011;70020;45.524;10.240;2023-08-01T12:12:29;8.65;;;3.50;;
80653;SDS011;70020;45.524;10.240;2023-08-01T12:14:55;10.63;;;4.30;;
80653;SDS011;70020;45.524;10.240;2023-08-01T12:17:25;6.75;;;3.83;;
80653;SDS011;70020;45.524;10.240;2023-08-01T12:19:51;6.47;;;3.80;;
80653;SDS011;70020;45.524;10.240;2023-08-01T12:22:17;7.05;;;3.88;;
80653;SDS011;70020;45.524;10.240;2023-08-01T12:24:43;6.78;;;3.72;;
80653;SDS011;70020;45.524;10.240;2023-08-01T12:27:10;9.60;;;3.85;;
80653;SDS011;70020;45.524;10.240;2023-08-01T12:29:36;6.72;;;3.20;;
80653;SDS011;70020;45.524;10.240;2023-08-01T12:32:04;10.02;;;4.25;;
80653;SDS011;70020;45.524;10.240;2023-08-01T12:34:31;6.28;;;3.80;;
80653;SDS011;70020;45.524;10.240;2023-08-01T12:36:57;7.50;;;3.65;;
80653;SDS011;70020;45.524;10.240;2023-08-01T12:39:23;6.32;;;3.60;;
80653;SDS011;70020;45.524;10.240;2023-08-01T12:41:50;6.65;;;4.00;;
80653;SDS011;70020;45.524;10.240;2023-08-01T12:44:17;9.00;;;4.47;;
80653;SDS011;70020;45.524;10.240;2023-08-01T12:46:42;10.05;;;4.05;;
80653;SDS011;70020;45.524;10.240;2023-08-01T12:49:08;7.72;;;4.47;;
80653;SDS011;70020;45.524;10.240;2023-08-01T12:51:33;6.32;;;3.67;;
80653;SDS011;70020;45.524;10.240;2023-08-01T12:53:59;5.72;;;3.95;;
80653;SDS011;70020;45.524;10.240;2023-08-01T12:56:25;8.98;;;4.55;;
80653;SDS011;70020;45.524;10.240;2023-08-01T12:58:51;7.70;;;5.18;;
80653;SDS011;70020;45.524;10.240;2023-08-01T13:01:17;10.23;;;4.20;;
80653;SDS011;70020;45.524;10.240;2023-08-01T13:03:43;9.10;;;4.53;;
80653;SDS011;70020;45.524;10.240;2023-08-01T13:06:12;9.95;;;4.70;;
80653;SDS011;70020;45.524;10.240;2023-08-01T13:08:40;10.00;;;4.40;;
80653;SDS011;70020;45.524;10.240;2023-08-01T13:11:09;7.43;;;4.40;;
80653;SDS011;70020;45.524;10.240;2023-08-01T13:13:39;8.60;;;5.18;;
80653;SDS011;70020;45.524;10.240;2023-08-01T13:16:05;7.60;;;4.38;;
80653;SDS011;70020;45.524;10.240;2023-08-01T13:21:53;9.00;;;4.97;;
80653;SDS011;70020;45.524;10.240;2023-08-01T13:24:18;6.53;;;4.63;;
80653;SDS011;70020;45.524;10.240;2023-08-01T13:26:44;10.13;;;5.15;;
80653;SDS011;70020;45.524;10.240;2023-08-01T13:29:10;9.30;;;4.68;;
80653;SDS011;70020;45.524;10.240;2023-08-01T13:31:36;6.00;;;4.68;;
80653;SDS011;70020;45.524;10.240;2023-08-01T13:34:02;7.25;;;4.45;;
80653;SDS011;70020;45.524;10.240;2023-08-01T13:36:28;9.20;;;4.63;;
80653;SDS011;70020;45.524;10.240;2023-08-01T13:38:55;8.85;;;4.50;;
80653;SDS011;70020;45.524;10.240;2023-08-01T13:41:21;8.63;;;4.10;;
80653;SDS011;70020;45.524;10.240;2023-08-01T13:43:47;9.07;;;4.38;;
80653;SDS011;70020;45.524;10.240;2023-08-01T13:46:14;8.93;;;4.80;;
80653;SDS011;70020;45.524;10.240;2023-08-01T13:48:44;11.55;;;4.70;;
80653;SDS011;70020;45.524;10.240;2023-08-01T13:51:10;10.80;;;4.60;;
80653;SDS011;70020;45.524;10.240;2023-08-01T13:53:36;7.40;;;4.90;;
80653;SDS011;70020;45.524;10.240;2023-08-01T13:56:11;9.43;;;4.18;;
80653;SDS011;70020;45.524;10.240;2023-08-01T13:58:38;13.77;;;5.85;;
80653;SDS011;70020;45.524;10.240;2023-08-01T14:01:04;11.43;;;4.53;;
80653;SDS011;70020;45.524;10.240;2023-08-01T14:03:32;9.20;;;4.68;;
80653;SDS011;70020;45.524;10.240;2023-08-01T14:06:11;9.90;;;4.40;;
80653;SDS011;70020;45.524;10.240;2023-08-01T14:08:39;7.53;;;4.40;;
80653;SDS011;70020;45.524;10.240;2023-08-01T14:11:06;9.30;;;4.95;;
80653;SDS011;70020;45.524;10.240;2023-08-01T14:13:34;8.82;;;4.30;;
80653;SDS011;70020;45.524;10.240;2023-08-01T14:16:01;13.93;;;4.53;;
80653;SDS011;70020;45.524;10.240;2023-08-01T14:18:28;6.57;;;4.13;;
80653;SDS011;70020;45.524;10.240;2023-08-01T14:20:54;8.68;;;3.95;;
80653;SDS011;70020;45.524;10.240;2023-08-01T14:23:20;8.23;;;4.68;;
80653;SDS011;70020;45.524;10.240;2023-08-01T14:25:46;7.18;;;4.40;;
80653;SDS011;70020;45.524;10.240;2023-08-01T14:28:12;9.95;;;4.57;;
80653;SDS011;70020;45.524;10.240;2023-08-01T14:30:38;8.18;;;4.93;;
80653;SDS011;70020;45.524;10.240;2023-08-01T14:33:08;8.95;;;4.30;;
80653;SDS011;70020;45.524;10.240;2023-08-01T14:35:37;11.27;;;5.00;;
80653;SDS011;70020;45.524;10.240;2023-08-01T14:38:03;8.10;;;4.78;;